Time,TemperatureF,DewpointF,PressureIn,WindDirection,WindDirectionDegrees,WindSpeedMPH,WindSpeedGustMPH,Humidity,HourlyPrecipIn,Conditions,Clouds,dailyrainin,SoftwareType,DateUTC
2013-03-02 00:00:00,26.0,24.5,29.99,NW,315,4.0,10.0,94,0.00,,,0.00,Weather View 32 v70,2013-03-02 05:00:00,
2013-03-02 00:15:00,26.0,24.5,29.99,NW,315,4.0,10.0,94,0.00,,,0.00,Weather View 32 v70,2013-03-02 05:15:00,
2013-03-02 00:30:00,26.0,24.3,29.99,NNE,22,12.0,14.0,93,0.00,,,0.00,Weather View 32 v70,2013-03-02 05:30:00,
2013-03-02 00:37:00,26.0,24.3,29.99,NNE,22,12.0,14.0,93,0.00,,,0.00,Weather View 32 v70,2013-03-02 05:37:00,
2013-03-02 00:45:00,26.0,24.3,29.99,NE,45,9.0,14.0,93,0.00,,,0.00,Weather View 32 v70,2013-03-02 05:45:00,
2013-03-02 01:00:00,26.0,24.3,29.99,NNE,22,5.0,14.0,93,0.00,,,0.00,Weather View 32 v70,2013-03-02 06:00:00,
2013-03-02 01:15:00,26.0,24.3,29.98,NE,45,7.0,14.0,93,0.00,,,0.00,Weather View 32 v70,2013-03-02 06:15:00,
2013-03-02 01:30:00,25.0,22.7,29.99,North,360,6.0,13.0,91,0.00,,,0.00,Weather View 32 v70,2013-03-02 06:30:00,
2013-03-02 01:37:00,25.0,22.7,29.99,North,360,6.0,13.0,91,0.00,,,0.00,Weather View 32 v70,2013-03-02 06:37:00,
2013-03-02 01:45:00,25.0,23.0,29.99,WNW,292,3.0,12.0,92,0.00,,,0.00,Weather View 32 v70,2013-03-02 06:45:00,
2013-03-02 02:00:00,25.0,22.7,29.99,West,270,5.0,12.0,91,0.00,,,0.00,Weather View 32 v70,2013-03-02 07:00:00,
2013-03-02 02:15:00,25.0,23.0,29.99,WNW,292,3.0,10.0,92,0.00,,,0.00,Weather View 32 v70,2013-03-02 07:15:00,
2013-03-02 02:30:00,25.0,23.3,29.98,WNW,292,1.0,10.0,93,0.00,,,0.00,Weather View 32 v70,2013-03-02 07:30:00,
2013-03-02 02:38:00,25.0,23.3,29.98,WNW,292,1.0,10.0,93,0.00,,,0.00,Weather View 32 v70,2013-03-02 07:38:00,
2013-03-02 02:45:00,25.0,23.3,29.98,NNW,337,7.0,10.0,93,0.00,,,0.00,Weather View 32 v70,2013-03-02 07:45:00,
2013-03-02 03:00:00,25.0,23.3,29.98,WNW,292,4.0,10.0,93,0.00,,,0.00,Weather View 32 v70,2013-03-02 08:00:00,
2013-03-02 03:15:00,25.0,23.5,29.97,NW,315,5.0,9.0,94,0.00,,,0.00,Weather View 32 v70,2013-03-02 08:15:00,
2013-03-02 03:30:00,25.0,23.5,29.97,WNW,292,5.0,9.0,94,0.00,,,0.00,Weather View 32 v70,2013-03-02 08:30:00,
2013-03-02 03:38:00,25.0,23.5,29.97,WNW,292,5.0,9.0,94,0.00,,,0.00,Weather View 32 v70,2013-03-02 08:38:00,
2013-03-02 03:45:00,25.0,23.5,29.97,NW,315,4.0,9.0,94,0.00,,,0.00,Weather View 32 v70,2013-03-02 08:45:00,
2013-03-02 04:00:00,24.0,22.5,29.96,NNW,337,6.0,10.0,94,0.00,,,0.00,Weather View 32 v70,2013-03-02 09:00:00,
2013-03-02 04:15:00,24.0,22.5,29.96,NNW,337,6.0,12.0,94,0.00,,,0.00,Weather View 32 v70,2013-03-02 09:15:00,
2013-03-02 04:30:00,24.0,22.5,29.97,ENE,67,4.0,12.0,94,0.00,,,0.00,Weather View 32 v70,2013-03-02 09:30:00,
2013-03-02 04:39:00,24.0,22.5,29.97,ENE,67,4.0,12.0,94,0.00,,,0.00,Weather View 32 v70,2013-03-02 09:39:00,
2013-03-02 04:45:00,24.0,22.5,29.97,North,360,5.0,12.0,94,0.00,,,0.00,Weather View 32 v70,2013-03-02 09:45:00,
2013-03-02 05:00:00,24.0,22.5,29.97,NNW,337,5.0,12.0,94,0.00,,,0.00,Weather View 32 v70,2013-03-02 10:00:00,
2013-03-02 05:15:00,24.0,22.5,29.97,NNE,22,4.0,11.0,94,0.00,,,0.00,Weather View 32 v70,2013-03-02 10:15:00,
2013-03-02 05:30:00,24.0,22.5,29.97,North,360,6.0,11.0,94,0.00,,,0.00,Weather View 32 v70,2013-03-02 10:30:00,
2013-03-02 05:39:00,24.0,22.5,29.97,North,360,6.0,11.0,94,0.00,,,0.00,Weather View 32 v70,2013-03-02 10:39:00,
2013-03-02 05:45:00,24.0,22.5,29.97,North,360,7.0,11.0,94,0.00,,,0.00,Weather View 32 v70,2013-03-02 10:45:00,
2013-03-02 06:00:00,23.0,21.0,29.98,North,360,9.0,12.0,92,0.00,,,0.00,Weather View 32 v70,2013-03-02 11:00:00,
2013-03-02 06:15:00,23.0,20.8,29.98,North,360,9.0,12.0,91,0.00,,,0.00,Weather View 32 v70,2013-03-02 11:15:00,
2013-03-02 06:30:00,23.0,20.8,29.98,NW,315,6.0,12.0,91,0.00,,,0.00,Weather View 32 v70,2013-03-02 11:30:00,
2013-03-02 06:45:00,23.0,20.2,29.98,North,360,9.0,12.0,89,0.00,,,0.00,Weather View 32 v70,2013-03-02 11:45:00,
2013-03-02 07:00:00,23.0,20.5,29.98,North,360,7.0,12.0,90,0.00,,,0.00,Weather View 32 v70,2013-03-02 12:00:00,
2013-03-02 07:15:00,23.0,20.2,29.98,NNW,337,7.0,11.0,89,0.00,,,0.00,Weather View 32 v70,2013-03-02 12:15:00,
2013-03-02 07:30:00,23.0,20.5,29.98,NNE,22,7.0,12.0,90,0.00,,,0.00,Weather View 32 v70,2013-03-02 12:30:00,
2013-03-02 07:45:00,23.0,20.2,29.99,North,360,7.0,12.0,89,0.00,,,0.00,Weather View 32 v70,2013-03-02 12:45:00,
2013-03-02 08:00:00,22.0,19.0,30.00,NW,315,10.0,12.0,88,0.00,,,0.00,Weather View 32 v70,2013-03-02 13:00:00,
2013-03-02 08:15:00,22.0,20.0,30.00,NNE,22,10.0,12.0,92,0.00,,,0.00,Weather View 32 v70,2013-03-02 13:15:00,
2013-03-02 08:30:00,22.0,20.3,30.01,NNW,337,5.0,12.0,93,0.00,,,0.00,Weather View 32 v70,2013-03-02 13:30:00,
2013-03-02 08:45:00,22.0,20.0,30.01,North,360,9.0,13.0,92,0.00,,,0.00,Weather View 32 v70,2013-03-02 13:45:00,
2013-03-02 09:00:00,23.0,20.2,30.00,NNE,22,10.0,13.0,89,0.00,,,0.00,Weather View 32 v70,2013-03-02 14:00:00,
2013-03-02 09:15:00,23.0,19.4,30.00,North,360,7.0,13.0,86,0.00,,,0.00,Weather View 32 v70,2013-03-02 14:15:00,
2013-03-02 09:30:00,23.0,20.0,30.00,North,360,8.0,13.0,88,0.00,,,0.00,Weather View 32 v70,2013-03-02 14:30:00,
2013-03-02 09:45:00,23.0,19.2,30.00,NNE,22,5.0,14.0,85,0.00,,,0.00,Weather View 32 v70,2013-03-02 14:45:00,
2013-03-02 10:00:00,23.0,19.2,30.00,NNW,337,7.0,14.0,85,0.00,,,0.00,Weather View 32 v70,2013-03-02 15:00:00,
2013-03-02 10:15:00,23.0,20.0,30.00,NW,315,10.0,14.0,88,0.00,,,0.00,Weather View 32 v70,2013-03-02 15:15:00,
2013-03-02 10:30:00,23.0,18.0,30.00,NNW,337,7.0,14.0,81,0.00,,,0.00,Weather View 32 v70,2013-03-02 15:30:00,
2013-03-02 10:45:00,24.0,19.6,30.00,WNW,292,6.0,13.0,83,0.00,,,0.00,Weather View 32 v70,2013-03-02 15:45:00,
2013-03-02 11:00:00,24.0,18.4,30.00,NNW,337,8.0,13.0,79,0.00,,,0.00,Weather View 32 v70,2013-03-02 16:00:00,
2013-03-02 11:15:00,24.0,19.3,30.00,NW,315,4.0,13.0,82,0.00,,,0.00,Weather View 32 v70,2013-03-02 16:15:00,
2013-03-02 11:30:00,23.0,19.2,30.00,WNW,292,4.0,13.0,85,0.00,,,0.00,Weather View 32 v70,2013-03-02 16:30:00,
2013-03-02 11:45:00,23.0,21.0,30.00,NNW,337,6.0,12.0,92,0.00,,,0.00,Weather View 32 v70,2013-03-02 16:45:00,
2013-03-02 12:00:00,23.0,20.0,30.01,WNW,292,4.0,12.0,88,0.00,,,0.00,Weather View 32 v70,2013-03-02 17:00:00,
2013-03-02 12:15:00,24.0,19.6,30.00,NW,315,4.0,12.0,83,0.00,,,0.00,Weather View 32 v70,2013-03-02 17:15:00,
2013-03-02 12:30:00,24.0,20.7,30.00,NW,315,8.0,12.0,87,0.00,,,0.00,Weather View 32 v70,2013-03-02 17:30:00,
2013-03-02 12:45:00,24.0,20.1,30.00,NW,315,7.0,15.0,85,0.00,,,0.00,Weather View 32 v70,2013-03-02 17:45:00,
2013-03-02 13:00:00,24.0,20.7,30.00,West,270,5.0,15.0,87,0.00,,,0.00,Weather View 32 v70,2013-03-02 18:00:00,
2013-03-02 13:15:00,24.0,20.4,29.99,NW,315,6.0,15.0,86,0.00,,,0.00,Weather View 32 v70,2013-03-02 18:15:00,
2013-03-02 13:30:00,24.0,20.1,29.98,WNW,292,5.0,15.0,85,0.00,,,0.00,Weather View 32 v70,2013-03-02 18:30:00,
2013-03-02 13:45:00,25.0,19.7,29.98,WSW,247,1.0,11.0,80,0.00,,,0.00,Weather View 32 v70,2013-03-02 18:45:00,
2013-03-02 14:00:00,25.0,20.3,29.98,NNW,337,7.0,11.0,82,0.00,,,0.00,Weather View 32 v70,2013-03-02 19:00:00,
2013-03-02 14:15:00,25.0,22.0,29.98,NNE,22,8.0,11.0,88,0.00,,,0.00,Weather View 32 v70,2013-03-02 19:15:00,
2013-03-02 14:30:00,24.0,21.5,29.99,NNE,22,5.0,12.0,90,0.00,,,0.00,Weather View 32 v70,2013-03-02 19:30:00,
2013-03-02 14:45:00,24.0,21.5,29.98,NNW,337,7.0,12.0,90,0.00,,,0.00,Weather View 32 v70,2013-03-02 19:45:00,
2013-03-02 15:00:00,24.0,21.0,29.98,NNW,337,5.0,13.0,88,0.00,,,0.00,Weather View 32 v70,2013-03-02 20:00:00,
2013-03-02 15:15:00,24.0,20.4,29.98,NW,315,7.0,13.0,86,0.00,,,0.00,Weather View 32 v70,2013-03-02 20:15:00,
2013-03-02 15:30:00,24.0,21.0,29.98,NW,315,6.0,13.0,88,0.00,,,0.00,Weather View 32 v70,2013-03-02 20:30:00,
2013-03-02 15:45:00,24.0,21.0,29.98,NW,315,3.0,13.0,88,0.00,,,0.00,Weather View 32 v70,2013-03-02 20:45:00,
2013-03-02 16:00:00,24.0,20.4,29.99,West,270,4.0,12.0,86,0.00,,,0.00,Weather View 32 v70,2013-03-02 21:00:00,
2013-03-02 16:15:00,24.0,21.0,29.98,East,90,0.0,12.0,88,0.00,,,0.00,Weather View 32 v70,2013-03-02 21:15:00,
2013-03-02 16:30:00,24.0,21.5,29.99,West,270,5.0,12.0,90,0.00,,,0.00,Weather View 32 v70,2013-03-02 21:30:00,
2013-03-02 16:45:00,24.0,21.8,29.99,NNW,337,9.0,12.0,91,0.00,,,0.00,Weather View 32 v70,2013-03-02 21:45:00,
2013-03-02 17:00:00,24.0,21.2,29.99,NW,315,10.0,13.0,89,0.00,,,0.00,Weather View 32 v70,2013-03-02 22:00:00,
2013-03-02 17:15:00,24.0,21.5,29.99,NW,315,4.0,15.0,90,0.00,,,0.00,Weather View 32 v70,2013-03-02 22:15:00,
2013-03-02 17:30:00,24.0,21.0,29.99,West,270,4.0,15.0,88,0.00,,,0.00,Weather View 32 v70,2013-03-02 22:30:00,
2013-03-02 17:45:00,24.0,20.7,30.00,WSW,247,6.0,15.0,87,0.00,,,0.00,Weather View 32 v70,2013-03-02 22:45:00,
2013-03-02 18:00:00,24.0,21.5,30.00,WNW,292,6.0,15.0,90,0.00,,,0.00,Weather View 32 v70,2013-03-02 23:00:00,
2013-03-02 18:15:00,23.0,20.0,30.01,NW,315,10.0,13.0,88,0.00,,,0.00,Weather View 32 v70,2013-03-02 23:15:00,
2013-03-02 18:30:00,23.0,19.4,30.01,NW,315,9.0,13.0,86,0.00,,,0.00,Weather View 32 v70,2013-03-02 23:30:00,
2013-03-02 18:45:00,23.0,20.0,30.02,SW,225,3.0,13.0,88,0.00,,,0.00,Weather View 32 v70,2013-03-02 23:45:00,
2013-03-02 19:00:00,23.0,20.8,30.02,South,180,0.0,13.0,91,0.00,,,0.00,Weather View 32 v70,2013-03-03 00:00:00,
2013-03-02 19:15:00,23.0,20.8,30.02,NNW,337,3.0,15.0,91,0.00,,,0.00,Weather View 32 v70,2013-03-03 00:15:00,
2013-03-02 19:30:00,23.0,21.3,30.02,NW,315,14.0,16.0,93,0.00,,,0.00,Weather View 32 v70,2013-03-03 00:30:00,
2013-03-02 19:45:00,23.0,20.8,30.02,WNW,292,5.0,16.0,91,0.00,,,0.00,Weather View 32 v70,2013-03-03 00:45:00,
2013-03-02 20:00:00,23.0,21.0,30.03,WNW,292,7.0,16.0,92,0.00,,,0.00,Weather View 32 v70,2013-03-03 01:00:00,
2013-03-02 20:15:00,23.0,21.3,30.03,NW,315,6.0,16.0,93,0.00,,,0.00,Weather View 32 v70,2013-03-03 01:15:00,
2013-03-02 20:30:00,22.0,20.3,30.04,WNW,292,6.0,14.0,93,0.00,,,0.00,Weather View 32 v70,2013-03-03 01:30:00,
2013-03-02 20:45:00,22.0,19.8,30.04,WSW,247,7.0,14.0,91,0.00,,,0.00,Weather View 32 v70,2013-03-03 01:45:00,
2013-03-02 21:00:00,22.0,20.3,30.04,West,270,3.0,14.0,93,0.00,,,0.00,Weather View 32 v70,2013-03-03 02:00:00,
2013-03-02 21:15:00,22.0,20.3,30.04,WNW,292,7.0,14.0,93,0.00,,,0.00,Weather View 32 v70,2013-03-03 02:15:00,
2013-03-02 21:30:00,22.0,20.0,30.05,NW,315,7.0,13.0,92,0.00,,,0.00,Weather View 32 v70,2013-03-03 02:30:00,
2013-03-02 21:45:00,22.0,20.3,30.04,NW,315,5.0,13.0,93,0.00,,,0.00,Weather View 32 v70,2013-03-03 02:45:00,
2013-03-02 22:00:00,22.0,20.3,30.04,SW,225,1.0,13.0,93,0.00,,,0.00,Weather View 32 v70,2013-03-03 03:00:00,
2013-03-02 22:15:00,22.0,20.3,30.04,NW,315,4.0,13.0,93,0.00,,,0.00,Weather View 32 v70,2013-03-03 03:15:00,
2013-03-02 22:30:00,21.0,19.3,30.04,WNW,292,6.0,12.0,93,0.00,,,0.00,Weather View 32 v70,2013-03-03 03:30:00,
2013-03-02 22:45:00,21.0,19.3,30.04,NE,45,6.0,11.0,93,0.00,,,0.00,Weather View 32 v70,2013-03-03 03:45:00,
2013-03-02 23:00:00,21.0,19.3,30.04,West,270,6.0,10.0,93,0.00,,,0.00,Weather View 32 v70,2013-03-03 04:00:00,
2013-03-02 23:15:00,21.0,19.3,30.04,WNW,292,9.0,14.0,93,0.00,,,0.00,Weather View 32 v70,2013-03-03 04:15:00,
2013-03-02 23:30:00,21.0,19.3,30.04,NW,315,4.0,14.0,93,0.00,,,0.00,Weather View 32 v70,2013-03-03 04:30:00,
2013-03-02 23:45:00,21.0,19.3,30.04,WSW,247,4.0,14.0,93,0.00,,,0.00,Weather View 32 v70,2013-03-03 04:45:00,